Waterloo, Ohio
Current Conditions -  °F | °C
As of 3:15 PM on Thursday 18 Dec 2014 (Local Time) from KDWU Reporting Station
Overcast Overcast  
Wind Chill: -1°   Ceiling: 10000
Heat Index: -1°   Visibility: 10mi
Dew Point: -7°   Wind: 0mph
Humidity: 64%   Direction: NA
Pressure: 30.21"   Gusts: NA
Location:  38.7°N, 82.47°W
Report Text: KDWU 182015Z AUTO 00000KT 10SM FEW023 OVC100 M01/M07 A3021 RMK AO1
Loading
Personal Weather Stations






























Interactive Weather Map New forecast layout! Learn more

10-Day Weather Forecast

Advertisements
Track Severe Weather on mobile